KLNA

Palm Beach County Park Airport

West Palm Beach, Florida, USA
METAR KLNA 161035Z AUTO 00000KT 10SM CLR 14/14 A3016 RMK AO2 T01390137
Observed Flight Rules
Dec-16 @ 10:35 UTC (32 minutes ago) Visual Flight Rules
Wind Visibility Clouds
Calm 10 miles
  • Clear skies
Temperatures Readings
Current 14°C / 57°F
Dewpoint 14°C / 57°F
Humidity 100%
Altimeter 30.16" Hg
Pressure 1021 hPa
Elevation 11
METAR KLNA 161035Z AUTO 00000KT 10SM CLR 14/14 A3016 RMK AO2 T01390137
Observed Flight Rules
Dec-16 @ 10:35 UTC
(32 minutes ago)
VFR
Wind Visibility
Calm 10 miles
Clouds
  • Clear skies
Temperature Dewpoint
14°C / 57°F 14°C / 57°F
Humidity Altimeter Pressure
100% 30.16" Hg 1021 hPa